Time;durP1;ratioP1;P1;durP2;ratioP2;P2;SDS_P1;SDS_P2;PMS_P1;PMS_P2;Temp;Humidity;BMP_temperature;BMP_pressure;BME280_temperature;BME280_humidity;BME280_pressure;Samples;Min_cycle;Max_cycle;Signal;HPM_P1;HPM_P2
2023/03/10 00:00:46;296162.00;0.99;511.32;1402.00;0.00;3.05;;;;;14.70;1.00;;;;;;2276284;61;1282;-87
2023/03/10 00:03:14;129365.00;0.43;224.23;0.00;0.00;0.62;;;;;14.70;1.00;;;;;;2276334;61;1050;-86
2023/03/10 00:05:45;104462.00;0.35;181.27;0.00;0.00;0.62;;;;;14.70;1.00;;;;;;2276143;61;1996;-86
2023/03/10 00:08:12;235219.00;0.78;406.53;0.00;0.00;0.62;;;;;14.90;1.00;;;;;;2276349;61;912;-86
2023/03/10 00:10:39;104563.00;0.35;181.45;0.00;0.00;0.62;;;;;14.80;1.00;;;;;;2276213;61;2370;-86
2023/03/10 00:13:08;181152.00;0.60;313.47;0.00;0.00;0.62;;;;;14.80;1.00;;;;;;2276219;61;2214;-85
2023/03/10 00:15:35;113303.00;0.38;196.53;0.00;0.00;0.62;;;;;14.90;1.00;;;;;;2276216;61;1577;-85
2023/03/10 00:18:02;138789.00;0.46;240.48;0.00;0.00;0.62;;;;;14.90;1.00;;;;;;2276131;61;1157;-88
2023/03/10 00:20:30;251850.00;0.84;435.13;0.00;0.00;0.62;;;;;14.80;1.00;;;;;;2276232;61;1593;-86
2023/03/10 00:22:57;16862.00;0.06;29.84;0.00;0.00;0.62;;;;;14.60;1.00;;;;;;2276162;61;1552;-86
2023/03/10 00:25:27;129782.00;0.43;224.95;0.00;0.00;0.62;;;;;14.60;1.00;;;;;;2276278;61;1078;-86
2023/03/10 00:27:57;206882.00;0.69;357.77;0.00;0.00;0.62;;;;;14.40;1.00;;;;;;2276225;61;1926;-87
2023/03/10 00:30:24;190109.00;0.63;328.90;0.00;0.00;0.62;;;;;14.40;1.00;;;;;;2276207;61;1384;-85
2023/03/10 00:32:51;60484.00;0.20;105.31;0.00;0.00;0.62;;;;;14.30;1.00;;;;;;2276207;61;1405;-86
2023/03/10 00:35:20;85282.00;0.28;148.16;0.00;0.00;0.62;;;;;14.40;1.00;;;;;;2276104;61;1527;-87
2023/03/10 00:37:48;109056.00;0.36;189.20;0.00;0.00;0.62;;;;;14.30;1.00;;;;;;2276146;61;1176;-85
2023/03/10 00:40:15;82002.00;0.27;142.50;0.00;0.00;0.62;;;;;14.40;1.00;;;;;;2276136;61;1320;-85
2023/03/10 00:42:43;50306.00;0.17;87.72;0.00;0.00;0.62;;;;;14.40;1.00;;;;;;2276081;61;1051;-85
2023/03/10 00:45:10;67826.00;0.23;118.00;0.00;0.00;0.62;;;;;14.30;1.00;;;;;;2276181;61;1151;-85
2023/03/10 00:47:37;42678.00;0.14;74.52;0.00;0.00;0.62;;;;;14.10;1.00;;;;;;2276042;61;2021;-86
2023/03/10 00:50:05;103976.00;0.35;180.43;0.00;0.00;0.62;;;;;14.00;1.00;;;;;;2276097;61;1399;-86
2023/03/10 00:52:32;85083.00;0.28;147.82;0.00;0.00;0.62;;;;;14.00;1.00;;;;;;2276198;61;1139;-85
2023/03/10 00:55:01;141677.00;0.47;245.46;0.00;0.00;0.62;;;;;14.00;1.00;;;;;;2276049;61;981;-85
2023/03/10 00:57:28;108295.00;0.36;187.89;0.00;0.00;0.62;;;;;14.10;1.00;;;;;;2276133;61;1143;-84
2023/03/10 00:59:55;25759.00;0.09;45.24;0.00;0.00;0.62;;;;;14.30;1.00;;;;;;2275939;61;1431;-85
2023/03/10 01:02:22;122308.00;0.41;212.06;0.00;0.00;0.62;;;;;14.20;1.00;;;;;;2276184;61;951;-86
2023/03/10 01:04:49;43761.00;0.15;76.39;0.00;0.00;0.62;;;;;14.00;1.00;;;;;;2276049;61;1566;-86
2023/03/10 01:07:16;115283.00;0.38;199.95;0.00;0.00;0.62;;;;;14.10;1.00;;;;;;2276019;61;2368;-86
2023/03/10 01:09:42;61319.00;0.20;106.76;0.00;0.00;0.62;;;;;14.10;1.00;;;;;;2275907;61;1417;-84
2023/03/10 01:12:11;67644.00;0.23;117.69;0.00;0.00;0.62;;;;;14.00;1.00;;;;;;2276072;61;2416;-87
2023/03/10 01:14:39;67025.00;0.22;116.62;0.00;0.00;0.62;;;;;13.90;1.00;;;;;;2276062;61;1585;-85
2023/03/10 01:17:09;337083.00;1.12;581.66;17484.00;0.06;30.91;;;;;13.80;1.00;;;;;;2275828;61;1458;-84
2023/03/10 01:19:36;119674.00;0.40;207.52;0.00;0.00;0.62;;;;;13.70;1.00;;;;;;2275685;61;1400;-84
2023/03/10 01:22:03;150332.00;0.50;260.38;0.00;0.00;0.62;;;;;13.50;1.00;;;;;;2276194;61;1042;-87
2023/03/10 01:24:29;278072.00;0.93;480.22;34557.00;0.12;60.47;;;;;13.60;1.00;;;;;;2275892;61;1099;-84
2023/03/10 01:26:56;189587.00;0.63;328.00;0.00;0.00;0.62;;;;;13.90;1.00;;;;;;2276027;61;2002;-86
2023/03/10 01:29:25;80368.00;0.27;139.67;0.00;0.00;0.62;;;;;14.20;1.00;;;;;;2275960;61;1390;-85
2023/03/10 01:31:51;48699.00;0.16;84.94;0.00;0.00;0.62;;;;;14.40;1.00;;;;;;2275989;61;1124;-83
2023/03/10 01:34:18;56702.00;0.19;98.78;0.00;0.00;0.62;;;;;14.50;1.00;;;;;;2276072;61;1163;-86
2023/03/10 01:36:45;8414.00;0.03;15.20;0.00;0.00;0.62;;;;;14.40;1.00;;;;;;2275953;61;1146;-87
2023/03/10 01:39:12;105637.00;0.35;183.30;0.00;0.00;0.62;;;;;14.50;1.00;;;;;;2276071;61;1395;-85
2023/03/10 01:41:40;130793.00;0.44;226.70;0.00;0.00;0.62;;;;;14.20;1.00;;;;;;2276029;61;994;-84
2023/03/10 01:44:14;75132.00;0.25;130.63;0.00;0.00;0.62;;;;;14.00;1.00;;;;;;2276026;61;1024;-84
2023/03/10 01:46:46;504279.00;1.68;869.19;97153.00;0.32;168.66;;;;;13.60;1.00;;;;;;2275918;61;1923;-84
2023/03/10 01:49:20;220050.00;0.73;380.43;47725.00;0.16;83.25;;;;;13.40;1.00;;;;;;2276009;61;1392;-84
2023/03/10 01:51:51;879373.00;2.93;1519.92;110947.00;0.37;192.46;;;;;13.20;1.00;;;;;;2275955;61;1110;-85
2023/03/10 01:54:24;1050863.00;3.50;1822.77;182322.00;0.61;315.49;;;;;13.30;1.00;;;;;;2275890;61;1111;-85
2023/03/10 01:56:54;1183140.00;3.94;2059.77;237698.00;0.79;410.79;;;;;13.30;1.00;;;;;;2275891;61;2051;-86
2023/03/10 01:59:22;940055.00;3.13;1626.58;99555.00;0.33;172.80;;;;;13.10;1.00;;;;;;2275778;61;1385;-85
2023/03/10 02:01:52;1103143.00;3.68;1916.05;218330.00;0.73;377.47;;;;;12.80;1.00;;;;;;2275946;61;1328;-85
2023/03/10 02:04:26;1141491.00;3.80;1984.79;152688.00;0.51;264.44;;;;;13.00;1.00;;;;;;2275950;61;1121;-84
2023/03/10 02:06:53;1073221.00;3.58;1862.60;171140.00;0.57;296.23;;;;;13.10;1.00;;;;;;2275833;61;1994;-84
2023/03/10 02:09:21;1687913.00;5.63;3001.96;218415.00;0.73;377.62;;;;;13.20;1.00;;;;;;2275810;61;1411;-87
2023/03/10 02:11:49;1390812.00;4.64;2439.29;170273.00;0.57;294.74;;;;;13.10;1.00;;;;;;2275545;61;1148;-87
2023/03/10 02:14:17;1489880.00;4.97;2624.09;147594.00;0.49;255.66;;;;;12.70;1.00;;;;;;2275926;61;1077;-85
2023/03/10 02:16:45;952231.00;3.17;1648.05;67653.00;0.23;117.70;;;;;12.90;1.00;;;;;;2275782;61;1118;-85
2023/03/10 02:19:26;1289382.00;4.30;2252.69;144645.00;0.48;250.58;;;;;12.90;1.00;;;;;;2275859;61;1447;-85
2023/03/10 02:22:03;1500924.00;5.00;2644.86;166530.00;0.56;288.29;;;;;13.00;1.00;;;;;;2276599;61;1047;-89
2023/03/10 02:24:41;1152522.00;3.84;2004.61;80004.00;0.27;139.04;;;;;13.00;1.00;;;;;;2276399;61;1009;-84
2023/03/10 02:27:18;1243300.00;4.14;2168.71;220132.00;0.73;380.57;;;;;12.90;1.00;;;;;;2276649;61;1933;-85
2023/03/10 02:29:50;1024571.00;3.42;1776.04;58401.00;0.19;101.71;;;;;13.00;1.00;;;;;;2276652;61;1340;-86
2023/03/10 02:32:19;1044470.00;3.48;1811.39;134671.00;0.45;233.38;;;;;13.00;1.00;;;;;;2276631;61;1119;-88
2023/03/10 02:34:46;788522.00;2.63;1361.11;95265.00;0.32;165.40;;;;;13.20;1.00;;;;;;2276663;61;1583;-84
2023/03/10 02:37:21;576515.00;1.92;993.69;27689.00;0.09;48.58;;;;;13.40;1.00;;;;;;2276574;61;2188;-85
2023/03/10 02:39:48;563225.00;1.88;970.76;10186.00;0.03;18.27;;;;;13.20;1.00;;;;;;2276645;61;1273;-85
2023/03/10 02:42:18;725984.00;2.42;1252.33;51075.00;0.17;89.05;;;;;12.90;1.00;;;;;;2276520;61;1158;-84
2023/03/10 02:44:48;915013.00;3.05;1582.50;53844.00;0.18;93.83;;;;;13.00;1.00;;;;;;2276590;61;1148;-85
2023/03/10 02:47:15;812373.00;2.71;1402.71;0.00;0.00;0.62;;;;;12.80;1.00;;;;;;2276504;61;2006;-83
2023/03/10 02:49:43;557511.00;1.86;960.91;41145.00;0.14;71.87;;;;;12.80;1.00;;;;;;2276474;61;1242;-85
2023/03/10 02:52:25;613219.00;2.04;1057.05;11274.00;0.04;20.16;;;;;12.70;1.00;;;;;;2276564;61;1170;-86
2023/03/10 02:54:52;86267.00;0.29;149.86;0.00;0.00;0.62;;;;;13.00;1.00;;;;;;2276594;61;1134;-87
2023/03/10 02:57:20;181758.00;0.61;314.52;0.00;0.00;0.62;;;;;13.10;1.00;;;;;;2276564;61;1190;-84
2023/03/10 02:59:47;148199.00;0.49;256.70;29137.00;0.10;51.09;;;;;13.10;1.00;;;;;;2276337;61;1284;-84
2023/03/10 03:02:14;199862.00;0.67;345.69;26321.00;0.09;46.21;;;;;13.30;1.00;;;;;;2276534;61;1176;-83
2023/03/10 03:04:41;75476.00;0.25;131.22;0.00;0.00;0.62;;;;;13.20;1.00;;;;;;2276587;61;974;-84
2023/03/10 03:07:08;214554.00;0.72;370.97;48635.00;0.16;84.83;;;;;13.50;1.00;;;;;;2276330;61;1915;-84
2023/03/10 03:09:35;100954.00;0.34;175.22;0.00;0.00;0.62;;;;;13.50;1.00;;;;;;2276383;61;1361;-85
2023/03/10 03:12:04;101770.00;0.34;176.63;0.00;0.00;0.62;;;;;13.40;1.00;;;;;;2276465;61;1141;-86
2023/03/10 03:14:33;129825.00;0.43;225.03;0.00;0.00;0.62;;;;;13.30;1.00;;;;;;2276430;61;1007;-88
2023/03/10 03:17:00;94343.00;0.31;163.81;0.00;0.00;0.62;;;;;13.30;1.00;;;;;;2276366;61;1616;-87
2023/03/10 03:19:27;73703.00;0.25;128.16;0.00;0.00;0.62;;;;;13.40;1.00;;;;;;2276414;61;1760;-87
2023/03/10 03:21:54;183259.00;0.61;317.10;0.00;0.00;0.62;;;;;13.50;1.00;;;;;;2276519;61;1051;-88
2023/03/10 03:24:22;122927.00;0.41;213.13;0.00;0.00;0.62;;;;;13.70;1.00;;;;;;2276403;61;961;-86
2023/03/10 03:26:50;110591.00;0.37;191.85;0.00;0.00;0.62;;;;;13.60;1.00;;;;;;2276321;61;1994;-87
2023/03/10 03:29:18;242386.00;0.81;418.86;0.00;0.00;0.62;;;;;13.40;1.00;;;;;;2276377;61;1567;-87
2023/03/10 03:31:53;125357.00;0.42;217.32;0.00;0.00;0.62;;;;;13.30;1.00;;;;;;2276244;61;968;-84
2023/03/10 03:34:20;87826.00;0.29;152.55;0.00;0.00;0.62;;;;;13.50;1.00;;;;;;2276326;61;1432;-87
2023/03/10 03:36:47;113878.00;0.38;197.52;0.00;0.00;0.62;;;;;13.40;1.00;;;;;;2276386;61;1035;-87
2023/03/10 03:39:16;60166.00;0.20;104.76;0.00;0.00;0.62;;;;;13.40;1.00;;;;;;2276300;61;2294;-87
2023/03/10 03:41:43;140857.00;0.47;244.05;0.00;0.00;0.62;;;;;13.50;1.00;;;;;;2276313;61;1549;-85
2023/03/10 03:44:10;120390.00;0.40;208.76;0.00;0.00;0.62;;;;;13.20;1.00;;;;;;2276279;61;1108;-84
2023/03/10 03:46:37;80399.00;0.27;139.73;0.00;0.00;0.62;;;;;12.80;1.00;;;;;;2276423;61;1994;-85
2023/03/10 03:49:05;118699.00;0.40;205.84;0.00;0.00;0.62;;;;;12.80;1.00;;;;;;2276261;61;1574;-87
2023/03/10 03:51:35;147253.00;0.49;255.07;0.00;0.00;0.62;;;;;12.90;1.00;;;;;;2276225;61;1761;-84
2023/03/10 03:54:02;42375.00;0.14;74.00;0.00;0.00;0.62;;;;;12.80;1.00;;;;;;2276344;61;1126;-84
2023/03/10 03:56:29;52039.00;0.17;90.71;0.00;0.00;0.62;;;;;12.90;1.00;;;;;;2276310;61;1154;-85
2023/03/10 03:58:55;97315.00;0.32;168.94;0.00;0.00;0.62;;;;;12.80;1.00;;;;;;2276180;61;1445;-85
2023/03/10 04:01:22;43566.00;0.15;76.06;0.00;0.00;0.62;;;;;13.00;1.00;;;;;;2276548;61;938;-86
2023/03/10 04:03:49;103008.00;0.34;178.76;0.00;0.00;0.62;;;;;12.90;1.00;;;;;;2276681;61;1075;-87
2023/03/10 04:06:17;38195.00;0.13;66.77;0.00;0.00;0.62;;;;;12.80;1.00;;;;;;2276695;61;907;-84
2023/03/10 04:08:44;107034.00;0.36;185.71;0.00;0.00;0.62;;;;;12.70;1.00;;;;;;2276586;61;1936;-85
2023/03/10 04:11:11;165795.00;0.55;287.02;0.00;0.00;0.62;;;;;12.80;1.00;;;;;;2276639;61;1445;-84
2023/03/10 04:13:38;134441.00;0.45;232.99;0.00;0.00;0.62;;;;;13.00;1.00;;;;;;2276657;61;926;-85
2023/03/10 04:16:06;107739.00;0.36;186.93;0.00;0.00;0.62;;;;;13.10;1.00;;;;;;2276520;61;1068;-85
2023/03/10 04:18:33;66807.00;0.22;116.24;0.00;0.00;0.62;;;;;13.10;1.00;;;;;;2276542;61;1459;-85
2023/03/10 04:20:59;111987.00;0.37;194.26;0.00;0.00;0.62;;;;;13.10;1.00;;;;;;2276632;61;1295;-87
2023/03/10 04:23:28;119332.00;0.40;206.93;0.00;0.00;0.62;;;;;12.80;1.00;;;;;;2276640;61;1479;-88
2023/03/10 04:25:56;142879.00;0.48;247.53;0.00;0.00;0.62;;;;;12.50;1.00;;;;;;2276572;61;1457;-86
2023/03/10 04:28:23;205983.00;0.69;356.22;0.00;0.00;0.62;;;;;12.30;1.00;;;;;;2276574;61;1994;-84
2023/03/10 04:30:50;114024.00;0.38;197.77;0.00;0.00;0.62;;;;;12.30;1.00;;;;;;2276618;61;1428;-87
2023/03/10 04:33:18;222073.00;0.74;383.91;26713.00;0.09;46.89;;;;;12.40;1.00;;;;;;2276613;61;948;-85
2023/03/10 04:35:47;49560.00;0.17;86.43;0.00;0.00;0.62;;;;;12.70;1.00;;;;;;2276614;61;1083;-86
2023/03/10 04:38:14;160281.00;0.53;277.52;0.00;0.00;0.62;;;;;13.00;1.00;;;;;;2276625;61;1094;-86
2023/03/10 04:40:44;982362.00;3.27;1701.26;123679.00;0.41;214.43;;;;;13.20;1.00;;;;;;2276530;61;1371;-88
2023/03/10 04:43:12;98327.00;0.33;170.68;0.00;0.00;0.62;;;;;13.40;1.00;;;;;;2276474;61;973;-87
2023/03/10 04:45:39;622617.00;2.08;1073.29;6123.00;0.02;11.23;;;;;13.60;1.00;;;;;;2276430;61;1488;-86
2023/03/10 04:48:06;1210738.00;4.04;2109.65;112715.00;0.38;195.51;;;;;13.50;1.00;;;;;;2276387;61;2004;-84
2023/03/10 04:50:33;1095085.00;3.65;1901.64;86563.00;0.29;150.37;;;;;13.50;1.00;;;;;;2276491;61;1423;-86
2023/03/10 04:53:00;939068.00;3.13;1624.84;95742.00;0.32;166.22;;;;;13.30;1.00;;;;;;2276496;61;1184;-87
2023/03/10 04:55:27;994427.00;3.31;1722.60;62098.00;0.21;108.10;;;;;13.10;1.00;;;;;;2276588;61;985;-86
2023/03/10 04:57:55;966406.00;3.22;1673.06;73669.00;0.25;128.10;;;;;13.10;1.00;;;;;;2276560;61;905;-86
2023/03/10 05:00:22;1841134.00;6.14;3303.06;201033.00;0.67;347.70;;;;;13.10;1.00;;;;;;2276529;61;1288;-87
2023/03/10 05:02:49;1297804.00;4.33;2268.09;178205.00;0.59;308.40;;;;;13.10;1.00;;;;;;2276416;61;1675;-87
2023/03/10 05:05:16;1528629.00;5.10;2697.11;260128.00;0.87;449.37;;;;;13.30;1.00;;;;;;2276509;61;1058;-87
2023/03/10 05:07:43;1414011.00;4.71;2482.33;238088.00;0.79;411.46;;;;;13.40;1.00;;;;;;2276447;61;1996;-87
2023/03/10 05:10:12;1247781.00;4.16;2176.85;155037.00;0.52;268.49;;;;;13.40;1.00;;;;;;2276439;61;1692;-86
2023/03/10 05:12:41;1108520.00;3.70;1925.67;250509.00;0.84;432.83;;;;;13.20;1.00;;;;;;2276530;61;1083;-86
2023/03/10 05:15:10;1252085.00;4.17;2184.68;218591.00;0.73;377.92;;;;;13.40;1.00;;;;;;2276507;61;1091;-86
2023/03/10 05:17:37;1295685.00;4.32;2264.21;165348.00;0.55;286.25;;;;;13.10;1.00;;;;;;2288337;55;3701;-85
2023/03/10 05:20:07;1769830.00;5.90;3161.92;311100.00;1.04;537.00;;;;;12.90;1.00;;;;;;2272157;61;1434;-86
2023/03/10 05:22:34;121160376.00;403.87;72052272.00;183047.00;0.61;316.74;;;;;13.00;1.00;;;;;;2272424;61;994;-87
2023/03/10 05:25:01;117825656.00;392.75;66260148.00;147918.00;0.49;256.22;;;;;13.00;1.00;;;;;;2272416;61;1115;-86
2023/03/10 05:27:28;784147.00;2.61;1353.49;199344.00;0.66;344.79;;;;;12.90;1.00;;;;;;2272319;61;1984;-86
2023/03/10 05:32:34;1207419.00;4.02;2103.64;230906.00;0.77;399.11;;;;;12.80;1.00;;;;;;2289366;56;2185;-88
2023/03/10 05:35:01;1283732.00;4.28;2242.36;33974.00;0.11;59.46;;;;;12.90;1.00;;;;;;2276442;61;1157;-87
2023/03/10 05:37:29;1201633.00;4.01;2093.17;155671.00;0.52;269.58;;;;;13.10;1.00;;;;;;2276341;61;1170;-87
2023/03/10 05:39:58;1197078.00;3.99;2084.94;147684.00;0.49;255.82;;;;;13.20;1.00;;;;;;2276393;61;1420;-86
2023/03/10 05:42:25;1402529.00;4.68;2461.02;220224.00;0.73;380.73;;;;;13.30;1.00;;;;;;2276390;61;1573;-88
2023/03/10 05:44:51;1190802.00;3.97;2073.60;157116.00;0.52;272.07;;;;;13.50;1.00;;;;;;2276422;61;1142;-88
2023/03/10 05:47:19;1148697.00;3.83;1997.73;172293.00;0.57;298.22;;;;;13.70;1.00;;;;;;2276387;61;1914;-89
2023/03/10 05:49:47;1206247.00;4.02;2101.52;165167.00;0.55;285.94;;;;;13.90;1.00;;;;;;2276343;61;1382;-87
2023/03/10 05:52:15;1112709.00;3.71;1933.17;123112.00;0.41;213.45;;;;;13.90;1.00;;;;;;2276368;61;1598;-87
2023/03/10 05:54:42;796401.00;2.65;1374.85;78594.00;0.26;136.61;;;;;13.80;1.00;;;;;;2276257;61;1693;-87
2023/03/10 05:57:10;1049737.00;3.50;1820.76;241535.00;0.81;417.39;;;;;13.90;1.00;;;;;;2276283;61;1556;-88
2023/03/10 05:59:37;691053.00;2.30;1191.73;122242.00;0.41;211.95;;;;;13.80;1.00;;;;;;2276386;61;1391;-86
2023/03/10 06:02:04;692369.00;2.31;1194.01;111362.00;0.37;193.18;;;;;13.80;1.00;;;;;;2276327;61;879;-87
2023/03/10 06:04:32;117609552.00;392.03;65895896.00;87128.00;0.29;151.35;;;;;13.50;1.00;;;;;;2276373;61;978;-87
2023/03/10 06:07:08;607189.00;2.02;1046.63;123016.00;0.41;213.28;;;;;13.00;1.00;;;;;;2276407;61;1027;-86
2023/03/10 06:09:35;1213743.00;4.05;2115.09;154895.00;0.52;268.24;;;;;12.90;1.00;;;;;;2276267;61;1935;-86
2023/03/10 06:12:02;1117306.00;3.72;1941.40;111420.00;0.37;193.28;;;;;12.80;1.00;;;;;;2276235;61;1480;-87
2023/03/10 06:14:37;994437.00;3.31;1722.62;134691.00;0.45;233.42;;;;;13.00;1.00;;;;;;2276286;61;1466;-88
2023/03/10 06:17:09;1094242.00;3.65;1900.13;151212.00;0.50;261.90;;;;;13.10;1.00;;;;;;2276359;61;993;-88
2023/03/10 06:19:38;846006.00;2.82;1461.48;42646.00;0.14;74.47;;;;;13.40;1.00;;;;;;2276272;61;1393;-86
2023/03/10 06:22:07;864333.00;2.88;1493.56;0.00;0.00;0.62;;;;;13.30;1.00;;;;;;2276243;61;1134;-87
2023/03/10 06:24:36;652331.00;2.17;1124.67;15057.00;0.05;26.71;;;;;13.30;1.00;;;;;;2276327;61;1149;-88
2023/03/10 06:27:03;1073907.00;3.58;1863.82;57127.00;0.19;99.51;;;;;13.40;1.00;;;;;;2276191;61;1493;-87
2023/03/10 06:29:31;857417.00;2.86;1481.45;36980.00;0.12;64.66;;;;;13.60;1.00;;;;;;2276264;61;1998;-88
2023/03/10 06:31:58;896950.00;2.99;1550.76;41782.00;0.14;72.97;;;;;13.70;1.00;;;;;;2276137;61;1432;-87
2023/03/10 06:34:25;879054.00;2.93;1519.36;45162.00;0.15;78.82;;;;;13.50;1.00;;;;;;2276183;61;986;-85
2023/03/10 06:36:52;1039756.00;3.47;1803.01;23334.00;0.08;41.04;;;;;13.60;1.00;;;;;;2275805;61;935;-86
2023/03/10 06:39:20;869566.00;2.90;1502.73;18324.00;0.06;32.37;;;;;13.80;1.00;;;;;;2275821;61;1405;-86
2023/03/10 06:41:47;1040675.00;3.47;1804.65;169915.00;0.57;294.12;;;;;14.00;1.00;;;;;;2276207;61;1074;-88
2023/03/10 06:44:17;1124118.00;3.75;1953.61;81550.00;0.27;141.71;;;;;14.20;1.00;;;;;;2276178;61;1102;-87
2023/03/10 06:46:44;941866.00;3.14;1629.77;7792.00;0.03;14.12;;;;;14.20;1.00;;;;;;2276132;61;895;-87
2023/03/10 06:49:11;874867.00;2.92;1512.02;44944.00;0.15;78.44;;;;;14.10;1.00;;;;;;2275962;61;1990;-87
2023/03/10 06:51:41;816043.00;2.72;1409.12;4057.00;0.01;7.65;;;;;13.90;1.00;;;;;;2275852;61;1081;-86
2023/03/10 06:54:09;1083412.00;3.61;1880.78;110304.00;0.37;191.35;;;;;14.10;1.00;;;;;;2276233;61;2197;-87
2023/03/10 06:56:42;674169.00;2.25;1162.47;24060.00;0.08;42.30;;;;;14.50;1.00;;;;;;2276174;61;1628;-88
2023/03/10 06:59:11;1098573.00;3.66;1907.87;17568.00;0.06;31.06;;;;;14.90;1.00;;;;;;2276076;61;1659;-89
2023/03/10 07:01:41;1108401.00;3.69;1925.45;60046.00;0.20;104.56;;;;;15.20;1.00;;;;;;2276291;61;1162;-88
2023/03/10 07:04:11;761565.00;2.54;1314.17;26434.00;0.09;46.41;;;;;15.10;1.00;;;;;;2276142;61;1646;-88
2023/03/10 07:06:41;654103.00;2.18;1127.74;18296.00;0.06;32.32;;;;;15.10;1.00;;;;;;2276256;61;991;-88
2023/03/10 07:09:13;756840.00;2.52;1305.95;23784.00;0.08;41.82;;;;;15.20;1.00;;;;;;2276734;61;1996;-87
2023/03/10 07:11:44;305732.00;1.02;527.77;0.00;0.00;0.62;;;;;15.30;1.00;;;;;;2276787;61;1561;-87
2023/03/10 07:14:14;218060.00;0.73;377.01;58455.00;0.19;101.81;;;;;15.40;1.00;;;;;;2276908;61;1132;-87
2023/03/10 07:16:45;59553.00;0.20;103.70;0.00;0.00;0.62;;;;;15.40;1.00;;;;;;2276928;61;958;-86
2023/03/10 07:19:18;52497.00;0.17;91.50;0.00;0.00;0.62;;;;;15.40;1.00;;;;;;2276835;61;1702;-86
2023/03/10 07:21:48;78721.00;0.26;136.83;0.00;0.00;0.62;;;;;15.40;1.00;;;;;;2276856;61;900;-88
2023/03/10 07:24:16;136236.00;0.45;236.08;0.00;0.00;0.62;;;;;15.50;1.00;;;;;;2276638;61;1629;-85
2023/03/10 07:26:49;34163.00;0.11;59.79;0.00;0.00;0.62;;;;;15.10;1.00;;;;;;2276822;61;1489;-86
2023/03/10 07:29:16;13504.00;0.05;24.02;0.00;0.00;0.62;;;;;14.90;1.00;;;;;;2276754;61;1928;-86
2023/03/10 07:31:44;129079.00;0.43;223.74;0.00;0.00;0.62;;;;;14.60;1.00;;;;;;2276666;61;1302;-85
2023/03/10 07:34:14;156924.00;0.52;271.74;16043.00;0.05;28.42;;;;;14.70;1.00;;;;;;2276545;61;1740;-86
2023/03/10 07:36:41;121963.00;0.41;211.47;0.00;0.00;0.62;;;;;14.80;1.00;;;;;;2276553;61;1426;-85
2023/03/10 07:39:11;154019.00;0.51;266.73;0.00;0.00;0.62;;;;;14.70;1.00;;;;;;2276703;61;1323;-86
2023/03/10 07:41:38;44104.00;0.15;76.99;0.00;0.00;0.62;;;;;14.90;1.00;;;;;;2276734;61;1688;-87
2023/03/10 07:44:07;230943.00;0.77;399.17;0.00;0.00;0.62;;;;;15.10;1.00;;;;;;2276573;61;980;-86
2023/03/10 07:46:34;188064.00;0.63;325.38;0.00;0.00;0.62;;;;;14.80;1.00;;;;;;2276816;61;1024;-86
2023/03/10 07:49:03;93260.00;0.31;161.94;0.00;0.00;0.62;;;;;14.80;1.00;;;;;;2276663;61;1994;-84
2023/03/10 07:51:30;53563.00;0.18;93.35;0.00;0.00;0.62;;;;;14.80;1.00;;;;;;2276681;61;956;-87
2023/03/10 07:53:57;99786.00;0.33;173.20;0.00;0.00;0.62;;;;;14.80;1.00;;;;;;2276495;61;1467;-86
2023/03/10 07:56:24;0.00;0.00;0.62;0.00;0.00;0.62;;;;;14.80;1.00;;;;;;2276473;61;1447;-84
2023/03/10 07:58:51;34979.00;0.12;61.20;0.00;0.00;0.62;;;;;14.60;1.00;;;;;;2276584;61;1419;-85
2023/03/10 08:01:21;187870.00;0.63;325.04;0.00;0.00;0.62;;;;;14.60;1.00;;;;;;2276463;61;1137;-85
2023/03/10 08:03:49;299983.00;1.00;517.89;40137.00;0.13;70.13;;;;;14.60;1.00;;;;;;2276599;61;1576;-85
2023/03/10 08:06:21;149971.00;0.50;259.76;0.00;0.00;0.62;;;;;14.80;1.00;;;;;;2276552;61;1616;-85
2023/03/10 08:08:48;38372.00;0.13;67.07;0.00;0.00;0.62;;;;;14.70;1.00;;;;;;2276615;61;1911;-85
2023/03/10 08:11:16;41577.00;0.14;72.62;0.00;0.00;0.62;;;;;14.60;1.00;;;;;;2276621;61;1052;-85
2023/03/10 08:13:46;152014.00;0.51;263.28;0.00;0.00;0.62;;;;;14.30;1.00;;;;;;2276200;61;1153;-85
2023/03/10 08:16:13;169168.00;0.56;292.83;0.00;0.00;0.62;;;;;13.90;1.00;;;;;;2276290;61;1232;-84
2023/03/10 08:18:42;81199.00;0.27;141.11;0.00;0.00;0.62;;;;;13.80;1.00;;;;;;2276447;61;1162;-83
2023/03/10 08:21:09;184926.00;0.62;319.97;29367.00;0.10;51.49;;;;;13.40;1.00;;;;;;2276217;61;1469;-82
2023/03/10 08:23:37;120428.00;0.40;208.82;0.00;0.00;0.62;;;;;13.10;1.00;;;;;;2276443;61;2047;-85
2023/03/10 08:26:06;70631.00;0.24;122.85;0.00;0.00;0.62;;;;;13.10;1.00;;;;;;2276497;61;1047;-84
2023/03/10 08:28:34;549435.00;1.83;946.99;86467.00;0.29;150.21;;;;;12.80;1.00;;;;;;2276257;61;1915;-84
2023/03/10 08:31:07;190961.00;0.64;330.36;50890.00;0.17;88.73;;;;;12.90;1.00;;;;;;2276170;61;1275;-85
2023/03/10 08:33:36;771421.00;2.57;1331.33;36712.00;0.12;64.20;;;;;12.90;1.00;;;;;;2276368;61;1578;-84
2023/03/10 08:36:15;554985.00;1.85;956.55;42264.00;0.14;73.81;;;;;12.90;1.00;;;;;;2276558;61;1108;-86
2023/03/10 08:38:42;130197.00;0.43;225.67;0.00;0.00;0.62;;;;;13.20;1.00;;;;;;2276174;61;1695;-84
2023/03/10 08:41:21;102827.00;0.34;178.45;0.00;0.00;0.62;;;;;13.20;1.00;;;;;;2276320;61;1160;-84
2023/03/10 08:43:52;85000.00;0.28;147.67;0.00;0.00;0.62;;;;;13.40;1.00;;;;;;2276489;61;1618;-85
2023/03/10 08:46:20;29813.00;0.10;52.26;0.00;0.00;0.62;;;;;13.60;1.00;;;;;;2276446;61;1055;-87
2023/03/10 08:48:48;33660.00;0.11;58.92;0.00;0.00;0.62;;;;;13.90;1.00;;;;;;2276468;61;2002;-86
2023/03/10 08:51:17;127972.00;0.43;221.83;32523.00;0.11;56.95;;;;;14.10;1.00;;;;;;2276420;61;1131;-87
2023/03/10 08:53:46;118681.00;0.40;205.81;0.00;0.00;0.62;;;;;14.00;1.00;;;;;;2276357;61;1700;-87
2023/03/10 08:56:18;59801.00;0.20;104.13;0.00;0.00;0.62;;;;;14.00;1.00;;;;;;2276381;61;1108;-87
2023/03/10 08:58:57;295301.00;0.98;509.84;0.00;0.00;0.62;;;;;14.10;1.00;;;;;;2276345;61;1535;-86
2023/03/10 09:01:26;399651.00;1.33;689.21;0.00;0.00;0.62;;;;;13.90;1.00;;;;;;2275997;61;1627;-88
2023/03/10 09:03:53;526939.00;1.76;908.22;0.00;0.00;0.62;;;;;13.50;1.00;;;;;;2276246;61;993;-86
2023/03/10 09:06:22;1645651.00;5.49;2920.31;109579.00;0.37;190.10;;;;;13.50;1.00;;;;;;2276178;61;1767;-88
2023/03/10 09:08:51;294762.00;0.98;508.92;0.00;0.00;0.62;;;;;13.60;1.00;;;;;;2276277;61;1994;-89
2023/03/10 09:11:21;867275.00;2.89;1498.72;8198.00;0.03;14.83;;;;;13.60;1.00;;;;;;2276187;61;1011;-86
2023/03/10 09:13:51;374564.00;1.25;646.08;0.00;0.00;0.62;;;;;13.60;1.00;;;;;;2276287;61;1600;-87
2023/03/10 09:16:18;330834.00;1.10;570.92;0.00;0.00;0.62;;;;;13.80;1.00;;;;;;2276420;61;1110;-86
2023/03/10 09:18:45;302839.00;1.01;522.80;0.00;0.00;0.62;;;;;13.70;1.00;;;;;;2276289;61;1562;-89
2023/03/10 09:21:14;210805.00;0.70;364.52;0.00;0.00;0.62;;;;;13.60;1.00;;;;;;2276323;61;1464;-87
2023/03/10 09:23:46;377414.00;1.26;650.98;45755.00;0.15;79.84;;;;;13.70;1.00;;;;;;2276156;61;1600;-83
2023/03/10 09:26:14;37107.00;0.12;64.88;0.00;0.00;0.62;;;;;13.80;1.00;;;;;;2276167;61;1090;-85
2023/03/10 09:28:41;77877.00;0.26;135.37;0.00;0.00;0.62;;;;;14.10;1.00;;;;;;2276260;61;1921;-84
2023/03/10 09:31:12;166051.00;0.55;287.46;0.00;0.00;0.62;;;;;14.50;1.00;;;;;;2275952;61;1463;-86
2023/03/10 09:33:42;403062.00;1.34;695.07;75395.00;0.25;131.08;;;;;14.90;1.00;;;;;;2276149;61;1028;-82
2023/03/10 09:36:17;175487.00;0.58;303.72;0.00;0.00;0.62;;;;;15.30;1.00;;;;;;2276405;61;938;-87
2023/03/10 09:38:52;247090.00;0.82;426.95;0.00;0.00;0.62;;;;;15.10;1.00;;;;;;2276317;61;1643;-87
2023/03/10 09:41:59;453903.00;1.51;782.50;37000.00;0.12;64.70;;;;;14.90;1.00;;;;;;2301530;40;3599;-88
2023/03/10 09:44:37;73535.00;0.25;127.87;0.00;0.00;0.62;;;;;14.80;1.00;;;;;;2280303;61;1082;-88
2023/03/10 09:47:32;69395.00;0.23;120.71;0.00;0.00;0.62;;;;;14.40;1.00;;;;;;2280313;61;1514;-86
2023/03/10 09:50:11;213197.00;0.71;368.64;0.00;0.00;0.62;;;;;14.00;1.00;;;;;;2280220;61;2006;-87
2023/03/10 09:52:45;231373.00;0.77;399.91;0.00;0.00;0.62;;;;;13.70;1.00;;;;;;2325449;55;3749;-88